sensor_id;sensor_type;location;lat;lon;timestamp;pressure;altitude;pressure_sealevel;temperature
9985;BMP180;16737;50.932;6.780;2024-03-17T00:01:12;100997.00;;;11.80
9985;BMP180;16737;50.932;6.780;2024-03-17T00:03:39;100985.00;;;11.80
9985;BMP180;16737;50.932;6.780;2024-03-17T00:06:07;100979.00;;;11.70
9985;BMP180;16737;50.932;6.780;2024-03-17T00:08:35;100972.00;;;11.70
9985;BMP180;16737;50.932;6.780;2024-03-17T00:11:01;100971.00;;;11.70
9985;BMP180;16737;50.932;6.780;2024-03-17T00:13:28;100969.00;;;11.60
9985;BMP180;16737;50.932;6.780;2024-03-17T00:15:55;100962.00;;;11.60
9985;BMP180;16737;50.932;6.780;2024-03-17T00:18:21;100965.00;;;11.60
9985;BMP180;16737;50.932;6.780;2024-03-17T00:20:48;100974.00;;;11.60
9985;BMP180;16737;50.932;6.780;2024-03-17T00:23:16;100967.00;;;11.50
9985;BMP180;16737;50.932;6.780;2024-03-17T00:25:43;100959.00;;;11.50
9985;BMP180;16737;50.932;6.780;2024-03-17T00:28:09;100949.00;;;11.50
9985;BMP180;16737;50.932;6.780;2024-03-17T00:30:37;100929.00;;;11.40
9985;BMP180;16737;50.932;6.780;2024-03-17T00:33:04;100933.00;;;11.40
9985;BMP180;16737;50.932;6.780;2024-03-17T00:35:31;100955.00;;;11.40
9985;BMP180;16737;50.932;6.780;2024-03-17T00:37:57;100949.00;;;11.30
9985;BMP180;16737;50.932;6.780;2024-03-17T00:40:25;100954.00;;;11.30
9985;BMP180;16737;50.932;6.780;2024-03-17T00:42:51;100946.00;;;11.30
9985;BMP180;16737;50.932;6.780;2024-03-17T00:45:20;100941.00;;;11.30
9985;BMP180;16737;50.932;6.780;2024-03-17T00:47:46;100948.00;;;11.20
9985;BMP180;16737;50.932;6.780;2024-03-17T00:50:13;100947.00;;;11.20
9985;BMP180;16737;50.932;6.780;2024-03-17T00:52:39;100939.00;;;11.20
9985;BMP180;16737;50.932;6.780;2024-03-17T00:55:07;100937.00;;;11.20
9985;BMP180;16737;50.932;6.780;2024-03-17T00:57:36;100937.00;;;11.20
9985;BMP180;16737;50.932;6.780;2024-03-17T01:00:05;100938.00;;;11.10
9985;BMP180;16737;50.932;6.780;2024-03-17T01:02:32;100940.00;;;11.10
9985;BMP180;16737;50.932;6.780;2024-03-17T01:04:59;100933.00;;;11.10
9985;BMP180;16737;50.932;6.780;2024-03-17T01:07:25;100931.00;;;11.10
9985;BMP180;16737;50.932;6.780;2024-03-17T01:09:52;100939.00;;;11.10
9985;BMP180;16737;50.932;6.780;2024-03-17T01:12:20;100931.00;;;11.10
9985;BMP180;16737;50.932;6.780;2024-03-17T01:14:48;100933.00;;;11.10
9985;BMP180;16737;50.932;6.780;2024-03-17T01:17:14;100935.00;;;11.10
9985;BMP180;16737;50.932;6.780;2024-03-17T01:19:41;100919.00;;;11.00
9985;BMP180;16737;50.932;6.780;2024-03-17T01:22:07;100932.00;;;11.00
9985;BMP180;16737;50.932;6.780;2024-03-17T01:24:34;100937.00;;;11.00
9985;BMP180;16737;50.932;6.780;2024-03-17T01:27:00;100923.00;;;11.00
9985;BMP180;16737;50.932;6.780;2024-03-17T01:29:28;100915.00;;;10.90
9985;BMP180;16737;50.932;6.780;2024-03-17T01:31:55;100906.00;;;10.90
9985;BMP180;16737;50.932;6.780;2024-03-17T01:34:23;100909.00;;;10.90
9985;BMP180;16737;50.932;6.780;2024-03-17T01:36:49;100911.00;;;10.90
9985;BMP180;16737;50.932;6.780;2024-03-17T01:39:16;100902.00;;;10.90
9985;BMP180;16737;50.932;6.780;2024-03-17T01:41:44;100903.00;;;10.90
9985;BMP180;16737;50.932;6.780;2024-03-17T01:44:23;100899.00;;;10.90
9985;BMP180;16737;50.932;6.780;2024-03-17T01:46:50;100883.00;;;10.90
9985;BMP180;16737;50.932;6.780;2024-03-17T01:49:18;100885.00;;;10.90
9985;BMP180;16737;50.932;6.780;2024-03-17T01:51:48;100884.00;;;10.80
9985;BMP180;16737;50.932;6.780;2024-03-17T01:54:15;100894.00;;;10.80
9985;BMP180;16737;50.932;6.780;2024-03-17T01:56:43;100897.00;;;10.80
9985;BMP180;16737;50.932;6.780;2024-03-17T01:59:10;100900.00;;;10.80
9985;BMP180;16737;50.932;6.780;2024-03-17T02:01:37;100893.00;;;10.80
9985;BMP180;16737;50.932;6.780;2024-03-17T02:04:04;100894.00;;;10.70
9985;BMP180;16737;50.932;6.780;2024-03-17T02:06:33;100877.00;;;10.70
9985;BMP180;16737;50.932;6.780;2024-03-17T02:08:59;100893.00;;;10.60
9985;BMP180;16737;50.932;6.780;2024-03-17T02:11:29;100887.00;;;10.60
9985;BMP180;16737;50.932;6.780;2024-03-17T02:13:56;100891.00;;;10.50
9985;BMP180;16737;50.932;6.780;2024-03-17T02:16:23;100890.00;;;10.50
9985;BMP180;16737;50.932;6.780;2024-03-17T02:18:54;100893.00;;;10.40
9985;BMP180;16737;50.932;6.780;2024-03-17T02:21:22;100881.00;;;10.40
9985;BMP180;16737;50.932;6.780;2024-03-17T02:23:50;100880.00;;;10.40
9985;BMP180;16737;50.932;6.780;2024-03-17T02:26:18;100881.00;;;10.30
9985;BMP180;16737;50.932;6.780;2024-03-17T02:28:46;100882.00;;;10.30
9985;BMP180;16737;50.932;6.780;2024-03-17T02:31:15;100886.00;;;10.30
9985;BMP180;16737;50.932;6.780;2024-03-17T02:33:42;100887.00;;;10.30
9985;BMP180;16737;50.932;6.780;2024-03-17T02:36:11;100880.00;;;10.20
9985;BMP180;16737;50.932;6.780;2024-03-17T02:38:39;100887.00;;;10.20
9985;BMP180;16737;50.932;6.780;2024-03-17T02:41:25;100886.00;;;10.20
9985;BMP180;16737;50.932;6.780;2024-03-17T02:43:53;100888.00;;;10.10
9985;BMP180;16737;50.932;6.780;2024-03-17T02:46:20;100881.00;;;10.10
9985;BMP180;16737;50.932;6.780;2024-03-17T02:48:51;100881.00;;;10.10
9985;BMP180;16737;50.932;6.780;2024-03-17T02:51:21;100871.00;;;10.10
9985;BMP180;16737;50.932;6.780;2024-03-17T02:53:49;100878.00;;;10.00
9985;BMP180;16737;50.932;6.780;2024-03-17T02:56:17;100864.00;;;10.00
9985;BMP180;16737;50.932;6.780;2024-03-17T02:58:47;100872.00;;;10.00
9985;BMP180;16737;50.932;6.780;2024-03-17T03:01:14;100866.00;;;10.00
9985;BMP180;16737;50.932;6.780;2024-03-17T03:03:41;100851.00;;;10.00
9985;BMP180;16737;50.932;6.780;2024-03-17T03:06:09;100850.00;;;10.00
9985;BMP180;16737;50.932;6.780;2024-03-17T03:08:46;100846.00;;;9.90
9985;BMP180;16737;50.932;6.780;2024-03-17T03:11:17;100863.00;;;9.90
9985;BMP180;16737;50.932;6.780;2024-03-17T03:13:45;100835.00;;;9.90
9985;BMP180;16737;50.932;6.780;2024-03-17T03:16:14;100845.00;;;9.90
9985;BMP180;16737;50.932;6.780;2024-03-17T03:18:41;100868.00;;;9.80
9985;BMP180;16737;50.932;6.780;2024-03-17T03:21:10;100833.00;;;9.80
9985;BMP180;16737;50.932;6.780;2024-03-17T03:23:38;100857.00;;;9.80
9985;BMP180;16737;50.932;6.780;2024-03-17T03:26:05;100858.00;;;9.80
9985;BMP180;16737;50.932;6.780;2024-03-17T03:28:35;100866.00;;;9.70
9985;BMP180;16737;50.932;6.780;2024-03-17T03:31:04;100853.00;;;9.70
9985;BMP180;16737;50.932;6.780;2024-03-17T03:33:32;100871.00;;;9.60
9985;BMP180;16737;50.932;6.780;2024-03-17T03:36:07;100862.00;;;9.60
9985;BMP180;16737;50.932;6.780;2024-03-17T03:38:34;100855.00;;;9.60
9985;BMP180;16737;50.932;6.780;2024-03-17T03:41:07;100866.00;;;9.60
9985;BMP180;16737;50.932;6.780;2024-03-17T03:43:35;100867.00;;;9.60
9985;BMP180;16737;50.932;6.780;2024-03-17T03:46:04;100855.00;;;9.50
9985;BMP180;16737;50.932;6.780;2024-03-17T03:48:31;100857.00;;;9.50
9985;BMP180;16737;50.932;6.780;2024-03-17T03:51:03;100850.00;;;9.50
9985;BMP180;16737;50.932;6.780;2024-03-17T03:53:31;100847.00;;;9.50
9985;BMP180;16737;50.932;6.780;2024-03-17T03:55:59;100858.00;;;9.50
9985;BMP180;16737;50.932;6.780;2024-03-17T03:58:27;100835.00;;;9.50
9985;BMP180;16737;50.932;6.780;2024-03-17T04:00:54;100859.00;;;9.50
9985;BMP180;16737;50.932;6.780;2024-03-17T04:03:23;100850.00;;;9.50
9985;BMP180;16737;50.932;6.780;2024-03-17T04:05:50;100852.00;;;9.50
9985;BMP180;16737;50.932;6.780;2024-03-17T04:08:19;100850.00;;;9.50
9985;BMP180;16737;50.932;6.780;2024-03-17T04:10:50;100847.00;;;9.50
9985;BMP180;16737;50.932;6.780;2024-03-17T04:13:17;100839.00;;;9.50
9985;BMP180;16737;50.932;6.780;2024-03-17T04:15:44;100829.00;;;9.50
9985;BMP180;16737;50.932;6.780;2024-03-17T04:18:11;100834.00;;;9.40
9985;BMP180;16737;50.932;6.780;2024-03-17T04:20:41;100839.00;;;9.40
9985;BMP180;16737;50.932;6.780;2024-03-17T04:23:09;100826.00;;;9.40
9985;BMP180;16737;50.932;6.780;2024-03-17T04:25:36;100826.00;;;9.40
9985;BMP180;16737;50.932;6.780;2024-03-17T04:28:04;100830.00;;;9.40
9985;BMP180;16737;50.932;6.780;2024-03-17T04:30:31;100819.00;;;9.40
9985;BMP180;16737;50.932;6.780;2024-03-17T04:32:58;100823.00;;;9.50
9985;BMP180;16737;50.932;6.780;2024-03-17T04:35:25;100825.00;;;9.50
9985;BMP180;16737;50.932;6.780;2024-03-17T04:37:54;100813.00;;;9.50
9985;BMP180;16737;50.932;6.780;2024-03-17T04:40:23;100814.00;;;9.50
9985;BMP180;16737;50.932;6.780;2024-03-17T04:42:50;100814.00;;;9.60
9985;BMP180;16737;50.932;6.780;2024-03-17T04:45:17;100822.00;;;9.60
9985;BMP180;16737;50.932;6.780;2024-03-17T04:47:44;100814.00;;;9.60
9985;BMP180;16737;50.932;6.780;2024-03-17T04:50:13;100826.00;;;9.60
9985;BMP180;16737;50.932;6.780;2024-03-17T04:52:40;100809.00;;;9.70
9985;BMP180;16737;50.932;6.780;2024-03-17T04:55:08;100813.00;;;9.70
9985;BMP180;16737;50.932;6.780;2024-03-17T04:57:36;100804.00;;;9.70
9985;BMP180;16737;50.932;6.780;2024-03-17T05:00:04;100800.00;;;9.70
9985;BMP180;16737;50.932;6.780;2024-03-17T05:02:32;100791.00;;;9.70
9985;BMP180;16737;50.932;6.780;2024-03-17T05:05:00;100797.00;;;9.70
9985;BMP180;16737;50.932;6.780;2024-03-17T05:07:27;100813.00;;;9.60
9985;BMP180;16737;50.932;6.780;2024-03-17T05:09:54;100799.00;;;9.60
9985;BMP180;16737;50.932;6.780;2024-03-17T05:12:22;100807.00;;;9.60
9985;BMP180;16737;50.932;6.780;2024-03-17T05:14:49;100812.00;;;9.60
9985;BMP180;16737;50.932;6.780;2024-03-17T05:17:17;100800.00;;;9.50
9985;BMP180;16737;50.932;6.780;2024-03-17T05:19:44;100799.00;;;9.50
9985;BMP180;16737;50.932;6.780;2024-03-17T05:22:11;100796.00;;;9.50
9985;BMP180;16737;50.932;6.780;2024-03-17T05:24:38;100797.00;;;9.50
9985;BMP180;16737;50.932;6.780;2024-03-17T05:27:06;100809.00;;;9.50
9985;BMP180;16737;50.932;6.780;2024-03-17T05:29:34;100804.00;;;9.40
9985;BMP180;16737;50.932;6.780;2024-03-17T05:32:04;100801.00;;;9.40
9985;BMP180;16737;50.932;6.780;2024-03-17T05:34:31;100788.00;;;9.40
9985;BMP180;16737;50.932;6.780;2024-03-17T05:36:58;100794.00;;;9.30
9985;BMP180;16737;50.932;6.780;2024-03-17T05:39:27;100796.00;;;9.30
9985;BMP180;16737;50.932;6.780;2024-03-17T05:41:54;100798.00;;;9.30
9985;BMP180;16737;50.932;6.780;2024-03-17T05:44:21;100796.00;;;9.30
9985;BMP180;16737;50.932;6.780;2024-03-17T05:46:50;100807.00;;;9.20
9985;BMP180;16737;50.932;6.780;2024-03-17T05:49:19;100793.00;;;9.20
9985;BMP180;16737;50.932;6.780;2024-03-17T05:51:46;100802.00;;;9.20
9985;BMP180;16737;50.932;6.780;2024-03-17T05:54:14;100812.00;;;9.20
9985;BMP180;16737;50.932;6.780;2024-03-17T05:56:41;100806.00;;;9.20
9985;BMP180;16737;50.932;6.780;2024-03-17T05:59:08;100807.00;;;9.20
9985;BMP180;16737;50.932;6.780;2024-03-17T06:01:35;100809.00;;;9.20
9985;BMP180;16737;50.932;6.780;2024-03-17T06:04:04;100801.00;;;9.20
9985;BMP180;16737;50.932;6.780;2024-03-17T06:06:32;100798.00;;;9.10
9985;BMP180;16737;50.932;6.780;2024-03-17T06:08:59;100808.00;;;9.10
9985;BMP180;16737;50.932;6.780;2024-03-17T06:11:26;100793.00;;;9.10
9985;BMP180;16737;50.932;6.780;2024-03-17T06:13:53;100793.00;;;9.10
9985;BMP180;16737;50.932;6.780;2024-03-17T06:16:20;100799.00;;;9.10
9985;BMP180;16737;50.932;6.780;2024-03-17T06:18:48;100797.00;;;9.10
9985;BMP180;16737;50.932;6.780;2024-03-17T06:21:19;100795.00;;;9.10
9985;BMP180;16737;50.932;6.780;2024-03-17T06:23:46;100793.00;;;9.10
9985;BMP180;16737;50.932;6.780;2024-03-17T06:26:13;100793.00;;;9.10
9985;BMP180;16737;50.932;6.780;2024-03-17T06:28:40;100782.00;;;9.10
9985;BMP180;16737;50.932;6.780;2024-03-17T06:31:09;100784.00;;;9.10
9985;BMP180;16737;50.932;6.780;2024-03-17T06:33:36;100776.00;;;9.10
9985;BMP180;16737;50.932;6.780;2024-03-17T06:36:04;100778.00;;;9.10
9985;BMP180;16737;50.932;6.780;2024-03-17T06:38:33;100780.00;;;9.20
9985;BMP180;16737;50.932;6.780;2024-03-17T06:41:00;100780.00;;;9.20
9985;BMP180;16737;50.932;6.780;2024-03-17T06:43:27;100765.00;;;9.30
9985;BMP180;16737;50.932;6.780;2024-03-17T06:45:55;100780.00;;;9.40
9985;BMP180;16737;50.932;6.780;2024-03-17T06:48:23;100774.00;;;9.40
9985;BMP180;16737;50.932;6.780;2024-03-17T06:50:51;100788.00;;;9.50
9985;BMP180;16737;50.932;6.780;2024-03-17T06:53:20;100781.00;;;9.50
9985;BMP180;16737;50.932;6.780;2024-03-17T06:55:54;100774.00;;;9.50
9985;BMP180;16737;50.932;6.780;2024-03-17T06:58:22;100780.00;;;9.60
9985;BMP180;16737;50.932;6.780;2024-03-17T07:00:57;100761.00;;;9.60
9985;BMP180;16737;50.932;6.780;2024-03-17T07:03:25;100772.00;;;9.70
9985;BMP180;16737;50.932;6.780;2024-03-17T07:05:54;100771.00;;;9.70
9985;BMP180;16737;50.932;6.780;2024-03-17T07:08:22;100771.00;;;9.80
9985;BMP180;16737;50.932;6.780;2024-03-17T07:10:59;100768.00;;;9.80
9985;BMP180;16737;50.932;6.780;2024-03-17T07:13:30;100765.00;;;9.90
9985;BMP180;16737;50.932;6.780;2024-03-17T07:15:57;100766.00;;;10.00
9985;BMP180;16737;50.932;6.780;2024-03-17T07:18:26;100759.00;;;10.00
9985;BMP180;16737;50.932;6.780;2024-03-17T07:20:55;100758.00;;;10.10
9985;BMP180;16737;50.932;6.780;2024-03-17T07:23:23;100759.00;;;10.20
9985;BMP180;16737;50.932;6.780;2024-03-17T07:25:54;100762.00;;;10.20
9985;BMP180;16737;50.932;6.780;2024-03-17T07:28:23;100754.00;;;10.30
9985;BMP180;16737;50.932;6.780;2024-03-17T07:30:53;100773.00;;;10.40
9985;BMP180;16737;50.932;6.780;2024-03-17T07:33:22;100753.00;;;10.40
9985;BMP180;16737;50.932;6.780;2024-03-17T07:35:51;100778.00;;;10.50
9985;BMP180;16737;50.932;6.780;2024-03-17T07:38:18;100792.00;;;10.60
9985;BMP180;16737;50.932;6.780;2024-03-17T07:40:56;100782.00;;;10.70
9985;BMP180;16737;50.932;6.780;2024-03-17T07:43:26;100776.00;;;10.80
9985;BMP180;16737;50.932;6.780;2024-03-17T07:46:00;100784.00;;;10.90
9985;BMP180;16737;50.932;6.780;2024-03-17T07:48:28;100788.00;;;11.00
9985;BMP180;16737;50.932;6.780;2024-03-17T07:50:57;100797.00;;;11.10
9985;BMP180;16737;50.932;6.780;2024-03-17T07:53:24;100797.00;;;11.20
9985;BMP180;16737;50.932;6.780;2024-03-17T07:56:01;100799.00;;;11.30
9985;BMP180;16737;50.932;6.780;2024-03-17T07:58:32;100795.00;;;11.40
9985;BMP180;16737;50.932;6.780;2024-03-17T08:01:00;100798.00;;;11.60
9985;BMP180;16737;50.932;6.780;2024-03-17T08:03:28;100798.00;;;11.70
9985;BMP180;16737;50.932;6.780;2024-03-17T08:05:58;100794.00;;;11.80
9985;BMP180;16737;50.932;6.780;2024-03-17T08:08:25;100778.00;;;12.00
9985;BMP180;16737;50.932;6.780;2024-03-17T08:10:52;100789.00;;;12.10
9985;BMP180;16737;50.932;6.780;2024-03-17T08:13:20;100793.00;;;12.20
9985;BMP180;16737;50.932;6.780;2024-03-17T08:15:57;100794.00;;;12.30
9985;BMP180;16737;50.932;6.780;2024-03-17T08:18:25;100815.00;;;12.40
9985;BMP180;16737;50.932;6.780;2024-03-17T08:20:53;100789.00;;;12.50
9985;BMP180;16737;50.932;6.780;2024-03-17T08:23:21;100793.00;;;12.50
9985;BMP180;16737;50.932;6.780;2024-03-17T08:25:52;100791.00;;;12.50
9985;BMP180;16737;50.932;6.780;2024-03-17T08:28:20;100784.00;;;12.60
9985;BMP180;16737;50.932;6.780;2024-03-17T08:30:57;100791.00;;;12.60
9985;BMP180;16737;50.932;6.780;2024-03-17T08:33:24;100782.00;;;12.60
9985;BMP180;16737;50.932;6.780;2024-03-17T08:35:56;100773.00;;;12.60
9985;BMP180;16737;50.932;6.780;2024-03-17T08:38:24;100770.00;;;12.70
9985;BMP180;16737;50.932;6.780;2024-03-17T08:40:52;100783.00;;;12.70
9985;BMP180;16737;50.932;6.780;2024-03-17T08:43:20;100788.00;;;12.80
9985;BMP180;16737;50.932;6.780;2024-03-17T08:45:56;100787.00;;;12.80
9985;BMP180;16737;50.932;6.780;2024-03-17T08:48:26;100774.00;;;12.90
9985;BMP180;16737;50.932;6.780;2024-03-17T08:50:55;100785.00;;;12.90
9985;BMP180;16737;50.932;6.780;2024-03-17T08:53:23;100773.00;;;13.00
9985;BMP180;16737;50.932;6.780;2024-03-17T08:55:50;100772.00;;;13.00
9985;BMP180;16737;50.932;6.780;2024-03-17T08:58:17;100765.00;;;13.00
9985;BMP180;16737;50.932;6.780;2024-03-17T09:00:45;100764.00;;;13.00
9985;BMP180;16737;50.932;6.780;2024-03-17T09:03:13;100759.00;;;13.00
9985;BMP180;16737;50.932;6.780;2024-03-17T09:05:43;100767.00;;;13.10
9985;BMP180;16737;50.932;6.780;2024-03-17T09:08:16;100764.00;;;13.20
9985;BMP180;16737;50.932;6.780;2024-03-17T09:10:47;100749.00;;;13.20
9985;BMP180;16737;50.932;6.780;2024-03-17T09:13:16;100772.00;;;13.30
9985;BMP180;16737;50.932;6.780;2024-03-17T09:15:51;100773.00;;;13.30
9985;BMP180;16737;50.932;6.780;2024-03-17T09:18:19;100788.00;;;13.40
9985;BMP180;16737;50.932;6.780;2024-03-17T09:20:55;100777.00;;;13.40
9985;BMP180;16737;50.932;6.780;2024-03-17T09:23:23;100773.00;;;13.50
9985;BMP180;16737;50.932;6.780;2024-03-17T09:25:56;100780.00;;;13.50
9985;BMP180;16737;50.932;6.780;2024-03-17T09:28:24;100785.00;;;13.60
9985;BMP180;16737;50.932;6.780;2024-03-17T09:30:51;100778.00;;;13.60
9985;BMP180;16737;50.932;6.780;2024-03-17T09:33:21;100787.00;;;13.60
9985;BMP180;16737;50.932;6.780;2024-03-17T09:35:58;100790.00;;;13.70
9985;BMP180;16737;50.932;6.780;2024-03-17T09:38:27;100782.00;;;13.70
9985;BMP180;16737;50.932;6.780;2024-03-17T09:40:55;100786.00;;;13.80
9985;BMP180;16737;50.932;6.780;2024-03-17T09:43:24;100784.00;;;13.90
9985;BMP180;16737;50.932;6.780;2024-03-17T09:45:52;100786.00;;;14.00
9985;BMP180;16737;50.932;6.780;2024-03-17T09:48:26;100780.00;;;14.10
9985;BMP180;16737;50.932;6.780;2024-03-17T09:50:56;100787.00;;;14.20
9985;BMP180;16737;50.932;6.780;2024-03-17T09:53:26;100767.00;;;14.30
9985;BMP180;16737;50.932;6.780;2024-03-17T09:55:58;100766.00;;;14.40
9985;BMP180;16737;50.932;6.780;2024-03-17T09:58:26;100780.00;;;14.50
9985;BMP180;16737;50.932;6.780;2024-03-17T10:00:53;100779.00;;;14.50
9985;BMP180;16737;50.932;6.780;2024-03-17T10:03:41;100792.00;;;14.60
9985;BMP180;16737;50.932;6.780;2024-03-17T10:06:12;100793.00;;;14.70
9985;BMP180;16737;50.932;6.780;2024-03-17T10:08:44;100800.00;;;14.70
9985;BMP180;16737;50.932;6.780;2024-03-17T10:11:12;100801.00;;;14.80
9985;BMP180;16737;50.932;6.780;2024-03-17T10:13:42;100798.00;;;14.90
9985;BMP180;16737;50.932;6.780;2024-03-17T10:16:22;100786.00;;;14.90
9985;BMP180;16737;50.932;6.780;2024-03-17T10:19:07;100790.00;;;14.90
9985;BMP180;16737;50.932;6.780;2024-03-17T10:21:37;100781.00;;;15.00
9985;BMP180;16737;50.932;6.780;2024-03-17T10:24:09;100794.00;;;15.10
9985;BMP180;16737;50.932;6.780;2024-03-17T10:26:42;100785.00;;;15.20
9985;BMP180;16737;50.932;6.780;2024-03-17T10:29:24;100791.00;;;15.20
9985;BMP180;16737;50.932;6.780;2024-03-17T10:31:53;100784.00;;;15.40
9985;BMP180;16737;50.932;6.780;2024-03-17T10:34:24;100790.00;;;15.40
9985;BMP180;16737;50.932;6.780;2024-03-17T10:36:52;100787.00;;;15.50
9985;BMP180;16737;50.932;6.780;2024-03-17T10:39:27;100790.00;;;15.60
9985;BMP180;16737;50.932;6.780;2024-03-17T10:42:00;100791.00;;;15.70
9985;BMP180;16737;50.932;6.780;2024-03-17T10:44:28;100796.00;;;15.80
9985;BMP180;16737;50.932;6.780;2024-03-17T10:46:57;100785.00;;;15.90
9985;BMP180;16737;50.932;6.780;2024-03-17T10:49:31;100796.00;;;16.00
9985;BMP180;16737;50.932;6.780;2024-03-17T10:52:01;100797.00;;;16.00
9985;BMP180;16737;50.932;6.780;2024-03-17T10:54:31;100804.00;;;16.10
9985;BMP180;16737;50.932;6.780;2024-03-17T10:57:15;100803.00;;;16.20
9985;BMP180;16737;50.932;6.780;2024-03-17T10:59:48;100795.00;;;16.20
9985;BMP180;16737;50.932;6.780;2024-03-17T11:02:22;100797.00;;;16.30
9985;BMP180;16737;50.932;6.780;2024-03-17T11:04:59;100797.00;;;16.40
9985;BMP180;16737;50.932;6.780;2024-03-17T11:07:27;100793.00;;;16.50
9985;BMP180;16737;50.932;6.780;2024-03-17T11:09:59;100793.00;;;16.60
9985;BMP180;16737;50.932;6.780;2024-03-17T11:12:43;100793.00;;;16.80
9985;BMP180;16737;50.932;6.780;2024-03-17T11:15:49;100792.00;;;16.90
9985;BMP180;16737;50.932;6.780;2024-03-17T11:18:41;100794.00;;;17.10
9985;BMP180;16737;50.932;6.780;2024-03-17T11:21:22;100793.00;;;17.20
9985;BMP180;16737;50.932;6.780;2024-03-17T11:24:02;100793.00;;;17.30
9985;BMP180;16737;50.932;6.780;2024-03-17T11:26:33;100797.00;;;17.40
9985;BMP180;16737;50.932;6.780;2024-03-17T11:29:01;100790.00;;;17.50
9985;BMP180;16737;50.932;6.780;2024-03-17T11:31:41;100793.00;;;17.60
9985;BMP180;16737;50.932;6.780;2024-03-17T11:34:32;100790.00;;;17.70
9985;BMP180;16737;50.932;6.780;2024-03-17T11:37:02;100784.00;;;17.90
9985;BMP180;16737;50.932;6.780;2024-03-17T11:39:53;100776.00;;;17.90
9985;BMP180;16737;50.932;6.780;2024-03-17T11:42:23;100782.00;;;18.00
9985;BMP180;16737;50.932;6.780;2024-03-17T11:45:04;100779.00;;;18.10
9985;BMP180;16737;50.932;6.780;2024-03-17T11:47:35;100767.00;;;18.10
9985;BMP180;16737;50.932;6.780;2024-03-17T11:50:05;100762.00;;;18.20
9985;BMP180;16737;50.932;6.780;2024-03-17T11:52:36;100763.00;;;18.20
9985;BMP180;16737;50.932;6.780;2024-03-17T11:55:03;100770.00;;;18.20
9985;BMP180;16737;50.932;6.780;2024-03-17T11:57:30;100763.00;;;18.20
9985;BMP180;16737;50.932;6.780;2024-03-17T11:59:57;100760.00;;;18.20
9985;BMP180;16737;50.932;6.780;2024-03-17T12:02:27;100746.00;;;18.30
9985;BMP180;16737;50.932;6.780;2024-03-17T12:04:57;100766.00;;;18.30
9985;BMP180;16737;50.932;6.780;2024-03-17T12:07:24;100757.00;;;18.30
9985;BMP180;16737;50.932;6.780;2024-03-17T12:09:53;100760.00;;;18.30
9985;BMP180;16737;50.932;6.780;2024-03-17T12:12:24;100752.00;;;18.30
9985;BMP180;16737;50.932;6.780;2024-03-17T12:14:57;100754.00;;;18.30
9985;BMP180;16737;50.932;6.780;2024-03-17T12:17:24;100735.00;;;18.30
9985;BMP180;16737;50.932;6.780;2024-03-17T12:19:52;100746.00;;;18.30
9985;BMP180;16737;50.932;6.780;2024-03-17T12:22:20;100735.00;;;18.30
9985;BMP180;16737;50.932;6.780;2024-03-17T12:24:49;100733.00;;;18.30
9985;BMP180;16737;50.932;6.780;2024-03-17T12:27:20;100730.00;;;18.30
9985;BMP180;16737;50.932;6.780;2024-03-17T12:29:49;100725.00;;;18.30
9985;BMP180;16737;50.932;6.780;2024-03-17T12:32:17;100720.00;;;18.30
9985;BMP180;16737;50.932;6.780;2024-03-17T12:34:49;100719.00;;;18.30
9985;BMP180;16737;50.932;6.780;2024-03-17T12:37:18;100721.00;;;18.30
9985;BMP180;16737;50.932;6.780;2024-03-17T12:39:45;100714.00;;;18.20
9985;BMP180;16737;50.932;6.780;2024-03-17T12:42:14;100722.00;;;18.20
9985;BMP180;16737;50.932;6.780;2024-03-17T12:44:52;100712.00;;;18.20
9985;BMP180;16737;50.932;6.780;2024-03-17T12:47:20;100712.00;;;18.20
9985;BMP180;16737;50.932;6.780;2024-03-17T12:49:49;100704.00;;;18.20
9985;BMP180;16737;50.932;6.780;2024-03-17T12:52:23;100690.00;;;18.20
9985;BMP180;16737;50.932;6.780;2024-03-17T12:55:01;100695.00;;;18.20
9985;BMP180;16737;50.932;6.780;2024-03-17T12:57:48;100688.00;;;18.20
9985;BMP180;16737;50.932;6.780;2024-03-17T13:00:35;100682.00;;;18.20
9985;BMP180;16737;50.932;6.780;2024-03-17T13:03:04;100665.00;;;18.20
9985;BMP180;16737;50.932;6.780;2024-03-17T13:05:32;100681.00;;;18.20
9985;BMP180;16737;50.932;6.780;2024-03-17T13:07:59;100672.00;;;18.10
9985;BMP180;16737;50.932;6.780;2024-03-17T13:10:28;100668.00;;;18.10
9985;BMP180;16737;50.932;6.780;2024-03-17T13:13:01;100653.00;;;18.10
9985;BMP180;16737;50.932;6.780;2024-03-17T13:15:29;100656.00;;;18.10
9985;BMP180;16737;50.932;6.780;2024-03-17T13:17:59;100656.00;;;18.10
9985;BMP180;16737;50.932;6.780;2024-03-17T13:20:27;100642.00;;;18.00
9985;BMP180;16737;50.932;6.780;2024-03-17T13:22:54;100651.00;;;18.00
9985;BMP180;16737;50.932;6.780;2024-03-17T13:25:23;100644.00;;;17.90
9985;BMP180;16737;50.932;6.780;2024-03-17T13:27:52;100655.00;;;17.80
9985;BMP180;16737;50.932;6.780;2024-03-17T13:30:22;100647.00;;;17.80
9985;BMP180;16737;50.932;6.780;2024-03-17T13:32:50;100645.00;;;17.70
9985;BMP180;16737;50.932;6.780;2024-03-17T13:35:26;100646.00;;;17.70
9985;BMP180;16737;50.932;6.780;2024-03-17T13:37:55;100644.00;;;17.80
9985;BMP180;16737;50.932;6.780;2024-03-17T13:40:25;100639.00;;;17.80
9985;BMP180;16737;50.932;6.780;2024-03-17T13:42:55;100631.00;;;17.80
9985;BMP180;16737;50.932;6.780;2024-03-17T13:45:30;100637.00;;;17.70
9985;BMP180;16737;50.932;6.780;2024-03-17T13:48:03;100631.00;;;17.80
9985;BMP180;16737;50.932;6.780;2024-03-17T13:50:32;100625.00;;;17.80
9985;BMP180;16737;50.932;6.780;2024-03-17T13:52:59;100629.00;;;17.80
9985;BMP180;16737;50.932;6.780;2024-03-17T13:55:29;100626.00;;;17.80
9985;BMP180;16737;50.932;6.780;2024-03-17T13:57:57;100629.00;;;17.80
9985;BMP180;16737;50.932;6.780;2024-03-17T14:00:28;100623.00;;;17.80
9985;BMP180;16737;50.932;6.780;2024-03-17T14:02:56;100633.00;;;17.80
9985;BMP180;16737;50.932;6.780;2024-03-17T14:05:25;100620.00;;;17.80
9985;BMP180;16737;50.932;6.780;2024-03-17T14:07:55;100625.00;;;17.80
9985;BMP180;16737;50.932;6.780;2024-03-17T14:10:24;100615.00;;;17.80
9985;BMP180;16737;50.932;6.780;2024-03-17T14:12:52;100613.00;;;17.80
9985;BMP180;16737;50.932;6.780;2024-03-17T14:15:19;100618.00;;;17.90
9985;BMP180;16737;50.932;6.780;2024-03-17T14:17:47;100604.00;;;17.90
9985;BMP180;16737;50.932;6.780;2024-03-17T14:20:16;100611.00;;;17.90
9985;BMP180;16737;50.932;6.780;2024-03-17T14:22:46;100603.00;;;18.00
9985;BMP180;16737;50.932;6.780;2024-03-17T14:25:20;100607.00;;;18.00